sensor_id;sensor_type;location;lat;lon;timestamp;pressure;altitude;pressure_sealevel;temperature;humidity
62011;BME280;47967;51.756;10.174;2023-05-29T04:01:59;100255.44;;;12.24;70.84
62011;BME280;47967;51.756;10.174;2023-05-29T04:06:02;100251.97;;;12.37;70.77
62011;BME280;47967;51.756;10.174;2023-05-29T04:10:06;100263.63;;;12.37;71.11
62011;BME280;47967;51.756;10.174;2023-05-29T04:14:10;100262.75;;;12.30;71.63
62011;BME280;47967;51.756;10.174;2023-05-29T04:18:14;100271.38;;;12.47;71.35
62011;BME280;47967;51.756;10.174;2023-05-29T04:22:17;100281.25;;;12.68;70.38
62011;BME280;47967;51.756;10.174;2023-05-29T04:26:22;100274.69;;;12.91;69.61
62011;BME280;47967;51.756;10.174;2023-05-29T04:30:26;100279.94;;;13.06;69.06
62011;BME280;47967;51.756;10.174;2023-05-29T04:34:31;100286.84;;;13.15;69.17
62011;BME280;47967;51.756;10.174;2023-05-29T04:38:34;100280.84;;;13.33;68.48
62011;BME280;47967;51.756;10.174;2023-05-29T04:42:38;100287.75;;;13.42;68.40
62011;BME280;47967;51.756;10.174;2023-05-29T04:46:42;100297.53;;;13.37;68.77
62011;BME280;47967;51.756;10.174;2023-05-29T04:50:47;100299.78;;;13.26;69.55
62011;BME280;47967;51.756;10.174;2023-05-29T04:54:50;100310.84;;;13.25;69.84
62011;BME280;47967;51.756;10.174;2023-05-29T04:58:53;100306.94;;;13.34;69.81
62011;BME280;47967;51.756;10.174;2023-05-29T05:02:56;100310.09;;;13.44;69.41
62011;BME280;47967;51.756;10.174;2023-05-29T05:07:00;100310.75;;;13.67;69.05
62011;BME280;47967;51.756;10.174;2023-05-29T05:11:03;100307.44;;;13.65;69.46
62011;BME280;47967;51.756;10.174;2023-05-29T05:15:09;100307.63;;;13.90;67.94
62011;BME280;47967;51.756;10.174;2023-05-29T05:19:12;100317.22;;;14.13;66.52
62011;BME280;47967;51.756;10.174;2023-05-29T05:23:18;100315.34;;;14.20;66.73
62011;BME280;47967;51.756;10.174;2023-05-29T05:27:22;100322.19;;;14.43;66.35
62011;BME280;47967;51.756;10.174;2023-05-29T05:31:25;100314.44;;;14.46;65.72
62011;BME280;47967;51.756;10.174;2023-05-29T05:35:27;100322.00;;;14.44;65.43
62011;BME280;47967;51.756;10.174;2023-05-29T05:39:32;100314.41;;;14.60;65.06
62011;BME280;47967;51.756;10.174;2023-05-29T05:43:34;100319.88;;;14.66;64.62
62011;BME280;47967;51.756;10.174;2023-05-29T05:47:47;100317.06;;;14.86;64.02
62011;BME280;47967;51.756;10.174;2023-05-29T05:51:52;100320.78;;;14.99;63.77
62011;BME280;47967;51.756;10.174;2023-05-29T05:55:57;100328.16;;;14.92;63.39
62011;BME280;47967;51.756;10.174;2023-05-29T06:00:00;100321.81;;;15.11;62.83
62011;BME280;47967;51.756;10.174;2023-05-29T06:04:16;100317.91;;;15.32;63.34
62011;BME280;47967;51.756;10.174;2023-05-29T06:08:21;100324.47;;;15.57;62.46
62011;BME280;47967;51.756;10.174;2023-05-29T06:12:27;100322.63;;;15.76;62.04
62011;BME280;47967;51.756;10.174;2023-05-29T06:16:39;100316.69;;;15.92;61.48
62011;BME280;47967;51.756;10.174;2023-05-29T06:20:42;100311.53;;;16.09;60.53
62011;BME280;47967;51.756;10.174;2023-05-29T06:24:45;100314.94;;;16.23;60.90
62011;BME280;47967;51.756;10.174;2023-05-29T06:28:49;100322.59;;;16.33;61.50
62011;BME280;47967;51.756;10.174;2023-05-29T06:32:52;100325.66;;;16.43;59.23
62011;BME280;47967;51.756;10.174;2023-05-29T06:37:00;100321.22;;;16.68;58.67
62011;BME280;47967;51.756;10.174;2023-05-29T06:41:03;100320.84;;;16.64;61.69
62011;BME280;47967;51.756;10.174;2023-05-29T06:45:10;100326.28;;;16.83;60.72
62011;BME280;47967;51.756;10.174;2023-05-29T06:49:12;100326.66;;;16.86;60.96
62011;BME280;47967;51.756;10.174;2023-05-29T06:53:15;100352.81;;;17.12;60.18
62011;BME280;47967;51.756;10.174;2023-05-29T06:57:22;100350.44;;;16.79;60.52
62011;BME280;47967;51.756;10.174;2023-05-29T07:01:26;100358.75;;;16.84;60.64
62011;BME280;47967;51.756;10.174;2023-05-29T07:05:33;100355.34;;;17.07;59.88
62011;BME280;47967;51.756;10.174;2023-05-29T07:09:36;100362.44;;;17.27;60.18
62011;BME280;47967;51.756;10.174;2023-05-29T07:13:40;100359.00;;;17.50;60.42
62011;BME280;47967;51.756;10.174;2023-05-29T07:17:44;100362.44;;;17.46;59.39
62011;BME280;47967;51.756;10.174;2023-05-29T07:21:54;100359.16;;;17.55;59.35
62011;BME280;47967;51.756;10.174;2023-05-29T07:25:58;100365.63;;;17.42;58.72
62011;BME280;47967;51.756;10.174;2023-05-29T07:30:04;100358.50;;;17.41;58.97
62011;BME280;47967;51.756;10.174;2023-05-29T07:34:10;100360.09;;;17.61;58.88
62011;BME280;47967;51.756;10.174;2023-05-29T07:38:12;100377.50;;;17.48;60.58
62011;BME280;47967;51.756;10.174;2023-05-29T07:42:16;100375.34;;;17.81;60.58
62011;BME280;47967;51.756;10.174;2023-05-29T07:46:19;100387.75;;;17.65;59.03
62011;BME280;47967;51.756;10.174;2023-05-29T07:50:27;100392.69;;;17.25;59.53
62011;BME280;47967;51.756;10.174;2023-05-29T07:54:30;100396.81;;;17.47;59.17
62011;BME280;47967;51.756;10.174;2023-05-29T07:58:35;100387.69;;;17.41;59.37
62011;BME280;47967;51.756;10.174;2023-05-29T08:02:38;100373.56;;;17.74;58.58
62011;BME280;47967;51.756;10.174;2023-05-29T08:07:11;100385.31;;;18.05;57.50
62011;BME280;47967;51.756;10.174;2023-05-29T08:11:14;100377.00;;;18.12;56.91
62011;BME280;47967;51.756;10.174;2023-05-29T08:15:16;100377.50;;;18.33;57.08
62011;BME280;47967;51.756;10.174;2023-05-29T08:19:19;100385.81;;;18.26;58.48
62011;BME280;47967;51.756;10.174;2023-05-29T08:23:23;100378.56;;;18.32;56.55
62011;BME280;47967;51.756;10.174;2023-05-29T08:27:25;100375.84;;;18.55;56.43
62011;BME280;47967;51.756;10.174;2023-05-29T08:31:29;100379.16;;;18.93;56.35
62011;BME280;47967;51.756;10.174;2023-05-29T08:35:32;100382.13;;;18.68;55.69
62011;BME280;47967;51.756;10.174;2023-05-29T08:39:36;100382.66;;;19.17;56.58
62011;BME280;47967;51.756;10.174;2023-05-29T08:43:41;100373.56;;;18.76;56.36
62011;BME280;47967;51.756;10.174;2023-05-29T08:47:44;100384.50;;;18.64;57.11
62011;BME280;47967;51.756;10.174;2023-05-29T08:51:54;100369.03;;;19.06;55.40
62011;BME280;47967;51.756;10.174;2023-05-29T08:56:01;100376.84;;;19.14;55.26
62011;BME280;47967;51.756;10.174;2023-05-29T09:00:05;100373.94;;;18.56;55.83
62011;BME280;47967;51.756;10.174;2023-05-29T09:04:11;100386.28;;;18.70;56.29
62011;BME280;47967;51.756;10.174;2023-05-29T09:08:13;100385.19;;;18.83;56.29
62011;BME280;47967;51.756;10.174;2023-05-29T09:12:17;100385.13;;;18.66;56.45
62011;BME280;47967;51.756;10.174;2023-05-29T09:16:20;100384.50;;;18.76;56.26
62011;BME280;47967;51.756;10.174;2023-05-29T09:20:23;100378.41;;;19.10;55.03
62011;BME280;47967;51.756;10.174;2023-05-29T09:24:27;100374.25;;;18.83;55.95
62011;BME280;47967;51.756;10.174;2023-05-29T09:28:31;100398.91;;;19.36;55.70
62011;BME280;47967;51.756;10.174;2023-05-29T09:32:34;100385.03;;;19.14;56.19
62011;BME280;47967;51.756;10.174;2023-05-29T09:36:38;100372.13;;;19.67;54.90
62011;BME280;47967;51.756;10.174;2023-05-29T09:40:41;100375.94;;;19.95;54.90
62011;BME280;47967;51.756;10.174;2023-05-29T09:44:50;100389.22;;;20.03;54.36
62011;BME280;47967;51.756;10.174;2023-05-29T09:48:53;100384.59;;;19.46;54.43
62011;BME280;47967;51.756;10.174;2023-05-29T09:52:56;100386.25;;;19.47;55.17
62011;BME280;47967;51.756;10.174;2023-05-29T09:57:00;100385.78;;;19.50;55.39
62011;BME280;47967;51.756;10.174;2023-05-29T10:01:06;100390.72;;;19.94;53.96
62011;BME280;47967;51.756;10.174;2023-05-29T10:05:09;100385.84;;;20.13;54.36
62011;BME280;47967;51.756;10.174;2023-05-29T10:09:15;100393.38;;;20.06;53.59
62011;BME280;47967;51.756;10.174;2023-05-29T10:13:22;100404.09;;;19.78;54.47
62011;BME280;47967;51.756;10.174;2023-05-29T10:17:33;100392.13;;;19.96;54.07
62011;BME280;47967;51.756;10.174;2023-05-29T10:21:37;100395.88;;;20.07;53.42
62011;BME280;47967;51.756;10.174;2023-05-29T10:25:43;100394.19;;;20.40;52.87
62011;BME280;47967;51.756;10.174;2023-05-29T10:29:50;100390.78;;;20.67;52.54
62011;BME280;47967;51.756;10.174;2023-05-29T10:34:06;100378.50;;;20.53;51.30
62011;BME280;47967;51.756;10.174;2023-05-29T10:38:12;100366.09;;;20.67;52.43
62011;BME280;47967;51.756;10.174;2023-05-29T10:42:40;100389.31;;;21.21;51.07
62011;BME280;47967;51.756;10.174;2023-05-29T10:47:04;100375.91;;;20.80;52.53
62011;BME280;47967;51.756;10.174;2023-05-29T10:51:10;100379.00;;;21.55;51.52
62011;BME280;47967;51.756;10.174;2023-05-29T10:55:33;100373.28;;;21.57;49.03
62011;BME280;47967;51.756;10.174;2023-05-29T10:59:36;100372.34;;;21.24;49.34
62011;BME280;47967;51.756;10.174;2023-05-29T11:03:39;100381.50;;;21.35;49.81
62011;BME280;47967;51.756;10.174;2023-05-29T11:07:51;100386.78;;;21.14;50.90
62011;BME280;47967;51.756;10.174;2023-05-29T11:12:13;100374.13;;;21.13;50.52
62011;BME280;47967;51.756;10.174;2023-05-29T11:16:20;100373.06;;;21.14;51.07
62011;BME280;47967;51.756;10.174;2023-05-29T11:20:43;100378.13;;;20.83;51.53
62011;BME280;47967;51.756;10.174;2023-05-29T11:24:48;100381.47;;;20.85;51.60
62011;BME280;47967;51.756;10.174;2023-05-29T11:28:51;100375.31;;;20.78;51.83
62011;BME280;47967;51.756;10.174;2023-05-29T11:33:07;100381.19;;;20.87;51.66
62011;BME280;47967;51.756;10.174;2023-05-29T11:37:11;100372.66;;;20.83;51.91
62011;BME280;47967;51.756;10.174;2023-05-29T11:41:16;100380.06;;;21.05;51.55
62011;BME280;47967;51.756;10.174;2023-05-29T11:45:21;100380.50;;;21.19;51.25
62011;BME280;47967;51.756;10.174;2023-05-29T11:49:27;100372.16;;;21.80;50.73
62011;BME280;47967;51.756;10.174;2023-05-29T11:53:30;100385.16;;;21.40;49.81
62011;BME280;47967;51.756;10.174;2023-05-29T11:57:34;100376.81;;;21.30;50.43
62011;BME280;47967;51.756;10.174;2023-05-29T12:01:37;100386.31;;;21.00;50.76
62011;BME280;47967;51.756;10.174;2023-05-29T12:05:47;100380.59;;;21.24;51.12
62011;BME280;47967;51.756;10.174;2023-05-29T12:09:54;100372.72;;;21.33;50.62
62011;BME280;47967;51.756;10.174;2023-05-29T12:14:00;100372.66;;;21.05;50.05
62011;BME280;47967;51.756;10.174;2023-05-29T12:18:03;100376.50;;;21.54;48.82
62011;BME280;47967;51.756;10.174;2023-05-29T12:22:06;100388.84;;;20.85;49.66
62011;BME280;47967;51.756;10.174;2023-05-29T12:26:09;100368.00;;;20.84;49.50
62011;BME280;47967;51.756;10.174;2023-05-29T12:30:14;100362.31;;;21.13;48.40
62011;BME280;47967;51.756;10.174;2023-05-29T12:34:34;100368.66;;;21.13;49.01
62011;BME280;47967;51.756;10.174;2023-05-29T12:38:46;100362.00;;;21.09;48.26
62011;BME280;47967;51.756;10.174;2023-05-29T12:42:54;100387.56;;;21.37;48.38
62011;BME280;47967;51.756;10.174;2023-05-29T12:46:59;100366.69;;;21.85;47.49
62011;BME280;47967;51.756;10.174;2023-05-29T12:51:04;100364.94;;;22.39;44.79
62011;BME280;47967;51.756;10.174;2023-05-29T12:55:09;100378.34;;;21.98;46.49
62011;BME280;47967;51.756;10.174;2023-05-29T12:59:11;100367.81;;;21.89;48.07
62011;BME280;47967;51.756;10.174;2023-05-29T13:03:15;100375.56;;;21.93;46.21
62011;BME280;47967;51.756;10.174;2023-05-29T13:07:18;100369.09;;;21.54;47.12
62011;BME280;47967;51.756;10.174;2023-05-29T13:11:21;100368.16;;;21.98;46.77
62011;BME280;47967;51.756;10.174;2023-05-29T13:15:24;100377.69;;;21.14;46.93
62011;BME280;47967;51.756;10.174;2023-05-29T13:19:28;100362.63;;;21.61;47.92
62011;BME280;47967;51.756;10.174;2023-05-29T13:23:31;100356.94;;;21.72;46.48
62011;BME280;47967;51.756;10.174;2023-05-29T13:27:34;100377.66;;;21.58;46.68
62011;BME280;47967;51.756;10.174;2023-05-29T13:31:37;100365.50;;;21.76;47.51
62011;BME280;47967;51.756;10.174;2023-05-29T13:35:41;100378.78;;;21.57;47.25
62011;BME280;47967;51.756;10.174;2023-05-29T13:39:44;100359.44;;;21.52;47.00
62011;BME280;47967;51.756;10.174;2023-05-29T13:43:47;100374.47;;;21.66;45.50
62011;BME280;47967;51.756;10.174;2023-05-29T13:47:49;100356.13;;;21.72;45.79
62011;BME280;47967;51.756;10.174;2023-05-29T13:51:54;100365.75;;;21.74;45.03
62011;BME280;47967;51.756;10.174;2023-05-29T13:55:56;100360.03;;;22.09;45.32
62011;BME280;47967;51.756;10.174;2023-05-29T13:59:59;100380.66;;;22.11;44.48
62011;BME280;47967;51.756;10.174;2023-05-29T14:04:05;100369.97;;;22.15;44.76
62011;BME280;47967;51.756;10.174;2023-05-29T14:08:09;100368.53;;;22.07;44.99
62011;BME280;47967;51.756;10.174;2023-05-29T14:12:12;100361.53;;;21.94;43.95
62011;BME280;47967;51.756;10.174;2023-05-29T14:16:15;100358.72;;;22.21;44.00
62011;BME280;47967;51.756;10.174;2023-05-29T14:20:18;100364.63;;;22.03;43.57
62011;BME280;47967;51.756;10.174;2023-05-29T14:24:22;100358.13;;;22.47;43.00
62011;BME280;47967;51.756;10.174;2023-05-29T14:28:26;100350.97;;;22.46;43.15
62011;BME280;47967;51.756;10.174;2023-05-29T14:32:28;100344.00;;;22.81;43.18
62011;BME280;47967;51.756;10.174;2023-05-29T14:36:31;100352.56;;;22.90;42.43
62011;BME280;47967;51.756;10.174;2023-05-29T14:40:35;100363.38;;;23.01;42.27
62011;BME280;47967;51.756;10.174;2023-05-29T14:44:38;100356.75;;;22.97;42.34
62011;BME280;47967;51.756;10.174;2023-05-29T14:48:41;100365.38;;;23.22;40.88
62011;BME280;47967;51.756;10.174;2023-05-29T14:52:44;100372.16;;;22.50;41.09
62011;BME280;47967;51.756;10.174;2023-05-29T14:56:47;100358.06;;;22.84;42.37
62011;BME280;47967;51.756;10.174;2023-05-29T15:00:50;100359.88;;;23.22;40.68
62011;BME280;47967;51.756;10.174;2023-05-29T15:04:53;100352.75;;;22.67;41.41
62011;BME280;47967;51.756;10.174;2023-05-29T15:08:57;100353.97;;;22.92;40.91
62011;BME280;47967;51.756;10.174;2023-05-29T15:13:03;100348.50;;;22.97;40.56
62011;BME280;47967;51.756;10.174;2023-05-29T15:17:08;100355.91;;;23.91;39.35
62011;BME280;47967;51.756;10.174;2023-05-29T15:21:10;100359.66;;;23.33;39.24
62011;BME280;47967;51.756;10.174;2023-05-29T15:25:14;100372.09;;;23.62;39.46
62011;BME280;47967;51.756;10.174;2023-05-29T15:29:18;100360.84;;;23.58;39.32
62011;BME280;47967;51.756;10.174;2023-05-29T15:33:22;100371.28;;;23.51;38.36
62011;BME280;47967;51.756;10.174;2023-05-29T15:37:25;100346.16;;;23.27;39.84
62011;BME280;47967;51.756;10.174;2023-05-29T15:41:27;100344.31;;;23.58;38.37
62011;BME280;47967;51.756;10.174;2023-05-29T15:45:33;100343.50;;;23.78;38.18
62011;BME280;47967;51.756;10.174;2023-05-29T15:49:36;100344.28;;;23.53;37.94
62011;BME280;47967;51.756;10.174;2023-05-29T15:53:38;100335.72;;;23.44;37.94
62011;BME280;47967;51.756;10.174;2023-05-29T15:57:42;100350.63;;;23.64;37.77
62011;BME280;47967;51.756;10.174;2023-05-29T16:01:45;100341.28;;;23.55;37.91
62011;BME280;47967;51.756;10.174;2023-05-29T16:05:48;100337.81;;;23.11;37.98
62011;BME280;47967;51.756;10.174;2023-05-29T16:09:51;100348.06;;;23.26;37.23
62011;BME280;47967;51.756;10.174;2023-05-29T16:13:53;100349.91;;;23.15;38.47
62011;BME280;47967;51.756;10.174;2023-05-29T16:17:58;100349.31;;;22.93;37.73
62011;BME280;47967;51.756;10.174;2023-05-29T16:22:01;100342.16;;;22.97;37.85
62011;BME280;47967;51.756;10.174;2023-05-29T16:26:03;100342.72;;;22.94;38.67
62011;BME280;47967;51.756;10.174;2023-05-29T16:30:07;100358.41;;;22.50;38.13
62011;BME280;47967;51.756;10.174;2023-05-29T16:34:11;100360.34;;;22.50;38.02
62011;BME280;47967;51.756;10.174;2023-05-29T16:38:14;100353.84;;;22.71;37.58
62011;BME280;47967;51.756;10.174;2023-05-29T16:42:16;100355.97;;;23.07;36.09
62011;BME280;47967;51.756;10.174;2023-05-29T16:46:19;100347.06;;;22.84;36.97
62011;BME280;47967;51.756;10.174;2023-05-29T16:50:23;100348.34;;;22.71;36.23
62011;BME280;47967;51.756;10.174;2023-05-29T16:54:25;100360.47;;;22.70;36.26
62011;BME280;47967;51.756;10.174;2023-05-29T16:58:29;100347.66;;;22.97;36.19
62011;BME280;47967;51.756;10.174;2023-05-29T17:02:32;100343.50;;;22.89;36.55
62011;BME280;47967;51.756;10.174;2023-05-29T17:06:36;100356.03;;;23.17;35.98
62011;BME280;47967;51.756;10.174;2023-05-29T17:10:39;100354.78;;;22.88;35.25
62011;BME280;47967;51.756;10.174;2023-05-29T17:14:41;100385.63;;;22.47;36.91
62011;BME280;47967;51.756;10.174;2023-05-29T17:18:44;100356.59;;;22.71;36.08
62011;BME280;47967;51.756;10.174;2023-05-29T17:22:48;100353.19;;;22.49;35.88
62011;BME280;47967;51.756;10.174;2023-05-29T17:26:51;100358.78;;;22.27;35.78
62011;BME280;47967;51.756;10.174;2023-05-29T17:30:54;100370.22;;;22.13;35.29
62011;BME280;47967;51.756;10.174;2023-05-29T17:34:56;100381.81;;;21.38;35.56
62011;BME280;47967;51.756;10.174;2023-05-29T17:39:00;100382.22;;;21.03;35.25
62011;BME280;47967;51.756;10.174;2023-05-29T17:43:03;100372.53;;;21.17;35.46
62011;BME280;47967;51.756;10.174;2023-05-29T17:47:06;100386.56;;;21.21;34.85
62011;BME280;47967;51.756;10.174;2023-05-29T17:51:08;100386.19;;;21.12;34.20
62011;BME280;47967;51.756;10.174;2023-05-29T17:55:12;100378.00;;;21.39;33.69
62011;BME280;47967;51.756;10.174;2023-05-29T17:59:15;100368.97;;;21.66;32.98
62011;BME280;47967;51.756;10.174;2023-05-29T18:03:17;100378.88;;;21.45;33.48
62011;BME280;47967;51.756;10.174;2023-05-29T18:07:20;100369.41;;;21.31;34.10
62011;BME280;47967;51.756;10.174;2023-05-29T18:11:24;100373.16;;;21.24;34.01
62011;BME280;47967;51.756;10.174;2023-05-29T18:15:27;100373.03;;;20.92;33.53
62011;BME280;47967;51.756;10.174;2023-05-29T18:19:30;100377.59;;;20.47;33.87
62011;BME280;47967;51.756;10.174;2023-05-29T18:23:32;100364.81;;;20.02;35.07
62011;BME280;47967;51.756;10.174;2023-05-29T18:27:36;100361.94;;;19.79;35.42
62011;BME280;47967;51.756;10.174;2023-05-29T18:31:39;100360.06;;;19.51;35.81
62011;BME280;47967;51.756;10.174;2023-05-29T18:35:42;100368.75;;;19.19;36.81
62011;BME280;47967;51.756;10.174;2023-05-29T18:39:45;100374.59;;;18.87;37.50
62011;BME280;47967;51.756;10.174;2023-05-29T18:43:49;100374.41;;;18.65;37.78
62011;BME280;47967;51.756;10.174;2023-05-29T18:47:52;100375.34;;;18.47;37.79
62011;BME280;47967;51.756;10.174;2023-05-29T18:51:55;100384.03;;;18.32;38.33
62011;BME280;47967;51.756;10.174;2023-05-29T18:56:08;100381.03;;;18.10;38.68
62011;BME280;47967;51.756;10.174;2023-05-29T19:00:13;100386.69;;;17.96;39.01
62011;BME280;47967;51.756;10.174;2023-05-29T19:04:15;100380.81;;;17.81;39.32
62011;BME280;47967;51.756;10.174;2023-05-29T19:08:18;100383.53;;;17.69;39.40
62011;BME280;47967;51.756;10.174;2023-05-29T19:12:22;100382.97;;;17.48;39.77
62011;BME280;47967;51.756;10.174;2023-05-29T19:16:26;100386.25;;;17.38;40.12
62011;BME280;47967;51.756;10.174;2023-05-29T19:20:29;100389.97;;;17.25;40.61
62011;BME280;47967;51.756;10.174;2023-05-29T19:24:31;100395.50;;;17.19;41.18
62011;BME280;47967;51.756;10.174;2023-05-29T19:28:34;100399.91;;;17.01;41.79
62011;BME280;47967;51.756;10.174;2023-05-29T19:32:38;100400.84;;;16.88;42.25
62011;BME280;47967;51.756;10.174;2023-05-29T19:36:42;100401.38;;;16.78;42.67
62011;BME280;47967;51.756;10.174;2023-05-29T19:40:44;100402.88;;;16.74;42.92
62011;BME280;47967;51.756;10.174;2023-05-29T19:44:47;100411.34;;;16.66;43.13
62011;BME280;47967;51.756;10.174;2023-05-29T19:48:51;100418.16;;;16.57;43.17
62011;BME280;47967;51.756;10.174;2023-05-29T19:52:54;100423.03;;;16.48;43.66
62011;BME280;47967;51.756;10.174;2023-05-29T19:56:56;100427.09;;;16.39;43.89
62011;BME280;47967;51.756;10.174;2023-05-29T20:01:02;100420.22;;;16.36;44.18
62011;BME280;47967;51.756;10.174;2023-05-29T20:05:09;100430.75;;;16.26;44.47
62011;BME280;47967;51.756;10.174;2023-05-29T20:09:12;100445.03;;;16.21;44.71
62011;BME280;47967;51.756;10.174;2023-05-29T20:13:16;100446.34;;;16.12;44.97
62011;BME280;47967;51.756;10.174;2023-05-29T20:17:32;100450.78;;;16.06;45.30
62011;BME280;47967;51.756;10.174;2023-05-29T20:21:36;100450.28;;;15.91;45.91
62011;BME280;47967;51.756;10.174;2023-05-29T20:25:39;100449.47;;;15.77;47.04
62011;BME280;47967;51.756;10.174;2023-05-29T20:29:41;100460.00;;;15.66;49.46
62011;BME280;47967;51.756;10.174;2023-05-29T20:33:44;100458.22;;;15.40;50.00
62011;BME280;47967;51.756;10.174;2023-05-29T20:37:49;100451.38;;;15.24;49.64
62011;BME280;47967;51.756;10.174;2023-05-29T20:41:53;100454.38;;;14.96;50.36
62011;BME280;47967;51.756;10.174;2023-05-29T20:45:59;100459.19;;;14.80;50.23
62011;BME280;47967;51.756;10.174;2023-05-29T20:50:03;100459.59;;;14.84;50.38
62011;BME280;47967;51.756;10.174;2023-05-29T20:54:08;100460.63;;;14.96;50.27
62011;BME280;47967;51.756;10.174;2023-05-29T20:58:10;100458.75;;;14.97;50.77
